Time;durP1;ratioP1;P1;durP2;ratioP2;P2;SDS_P1;SDS_P2;PMS_P1;PMS_P2;Temp;Humidity;BMP_temperature;BMP_pressure;BME280_temperature;BME280_humidity;BME280_pressure;Samples;Min_cycle;Max_cycle;Signal;HPM_P1;HPM_P2
2021/03/29 00:00:58;;;;;;;8.78;3.12;;;;;;;1.79;61.73;99230.34;1550115;92;21351;-65
2021/03/29 00:03:26;;;;;;;6.03;2.67;;;;;;;1.77;60.11;99229.59;1549896;92;21241;-64
2021/03/29 00:05:54;;;;;;;5.90;2.77;;;;;;;1.76;59.23;99230.91;1550078;92;21645;-64
2021/03/29 00:08:27;;;;;;;6.72;2.50;;;;;;;1.74;57.79;99228.43;1549899;92;21244;-64
2021/03/29 00:10:57;;;;;;;5.92;2.95;;;;;;;1.73;60.79;99229.76;1550057;92;21249;-64
2021/03/29 00:13:29;;;;;;;1.82;1.70;;;;;;;1.71;59.29;99231.55;1550242;91;21177;-65
2021/03/29 00:15:59;;;;;;;7.03;3.25;;;;;;;1.67;58.91;99229.55;1524637;93;21231;-65
2021/03/29 00:18:28;;;;;;;1.98;1.75;;;;;;;1.62;58.49;99230.60;1579152;90;21240;-64
2021/03/29 00:21:01;;;;;;;7.37;3.50;;;;;;;1.59;59.19;99232.00;1579320;90;21220;-65
2021/03/29 00:23:30;;;;;;;4.67;2.85;;;;;;;1.55;58.04;99233.00;1579505;88;21610;-69
2021/03/29 00:25:58;;;;;;;4.55;2.75;;;;;;;1.52;59.64;99235.69;1579164;90;21271;-70
2021/03/29 00:28:27;;;;;;;3.12;2.72;;;;;;;1.47;62.36;99235.84;1579376;89;21216;-70
2021/03/29 00:30:56;;;;;;;6.28;3.25;;;;;;;1.42;60.97;99230.89;1579190;90;21244;-70
2021/03/29 00:33:27;;;;;;;3.02;1.92;;;;;;;1.38;62.44;99234.44;1579155;89;21192;-64
2021/03/29 00:35:56;;;;;;;6.00;3.30;;;;;;;1.35;63.11;99237.12;1579357;89;21652;-66
2021/03/29 00:38:25;;;;;;;5.20;2.75;;;;;;;1.31;64.42;99233.00;1579327;90;21212;-64
2021/03/29 00:41:02;;;;;;;3.85;2.90;;;;;;;1.29;62.43;99234.76;1579388;90;21224;-64
2021/03/29 00:43:33;;;;;;;3.70;2.42;;;;;;;1.25;62.75;99234.92;1579342;90;21173;-70
2021/03/29 00:46:04;;;;;;;3.33;2.25;;;;;;;1.24;63.48;99230.71;1584552;89;21216;-70
2021/03/29 00:48:33;;;;;;;4.40;2.30;;;;;;;1.23;66.99;99234.98;1567578;91;21270;-69
2021/03/29 00:54:19;;;;;;;1.42;1.32;;;;;;;1.24;63.90;99230.71;1585987;90;21204;-69
2021/03/29 00:56:48;;;;;;;3.42;2.35;;;;;;;1.25;63.00;99235.75;1590291;90;21220;-70
2021/03/29 00:59:18;;;;;;;2.10;1.55;;;;;;;1.24;63.98;99243.06;1590052;90;21204;-65
2021/03/29 01:01:50;;;;;;;2.25;1.37;;;;;;;1.27;66.93;99246.79;1590125;90;21228;-65
2021/03/29 01:04:19;;;;;;;4.28;1.60;;;;;;;1.26;67.65;99232.76;1590250;90;21252;-65
2021/03/29 01:06:50;;;;;;;6.42;1.80;;;;;;;1.28;68.09;99238.23;1590009;90;21180;-65
2021/03/29 01:09:26;;;;;;;2.08;1.27;;;;;;;1.29;67.83;99238.59;1590089;90;21651;-65
2021/03/29 01:12:04;;;;;;;1.90;1.50;;;;;;;1.28;67.36;99238.23;1590330;90;21212;-65
2021/03/29 01:14:46;;;;;;;1.80;1.57;;;;;;;1.28;67.74;99238.67;1590234;90;21276;-66
2021/03/29 01:17:32;;;;;;;2.87;1.35;;;;;;;1.24;67.73;99226.88;1590013;90;21648;-65
2021/03/29 01:20:08;;;;;;;1.67;1.57;;;;;;;1.29;68.01;99239.87;1590093;88;21272;-65
2021/03/29 01:22:47;;;;;;;1.57;1.25;;;;;;;1.28;68.30;99239.52;1590199;90;21251;-64
2021/03/29 01:25:23;;;;;;;2.92;1.70;;;;;;;1.26;67.56;99242.99;1590185;90;21207;-65
2021/03/29 01:27:59;;;;;;;2.10;1.57;;;;;;;1.28;67.54;99247.63;1589028;88;21200;-64
2021/03/29 01:30:32;;;;;;;;;;;;;;;1.26;67.46;99244.27;1592434;90;21272;-65
2021/03/29 01:33:02;;;;;;;3.30;1.47;;;;;;;1.22;67.26;99244.83;1590214;90;20206;-64
2021/03/29 01:35:34;;;;;;;2.40;1.40;;;;;;;1.21;65.86;99244.42;1590165;90;21181;-65
2021/03/29 01:38:04;;;;;;;1.47;1.15;;;;;;;1.21;67.44;99243.15;1590090;90;21169;-70
2021/03/29 01:40:37;;;;;;;3.42;1.85;;;;;;;1.19;67.69;99246.22;1590178;90;21300;-70
2021/03/29 01:43:07;;;;;;;1.12;0.90;;;;;;;1.17;68.33;99245.86;1590265;90;21217;-70
2021/03/29 01:45:37;;;;;;;7.95;1.70;;;;;;;1.10;68.28;99238.85;1590016;90;21200;-65
2021/03/29 01:48:09;;;;;;;2.15;1.65;;;;;;;1.05;69.10;99237.36;1564516;90;21253;-70
2021/03/29 01:50:40;;;;;;;3.25;1.17;;;;;;;0.99;69.50;99238.83;1590119;90;21260;-70
2021/03/29 01:53:10;;;;;;;2.55;1.45;;;;;;;0.94;70.09;99245.38;1587354;89;21634;-70
2021/03/29 01:55:41;;;;;;;3.58;2.10;;;;;;;0.92;68.70;99242.89;1583530;91;21214;-70
2021/03/29 01:58:11;;;;;;;2.27;1.45;;;;;;;0.90;67.92;99235.70;1583193;91;21687;-70
2021/03/29 02:00:50;;;;;;;2.92;2.42;;;;;;;0.88;67.03;99240.48;1583226;89;21211;-70
2021/03/29 02:03:19;;;;;;;4.03;2.02;;;;;;;0.87;66.89;99237.52;1583165;91;21230;-71
2021/03/29 02:05:48;;;;;;;4.85;2.77;;;;;;;0.83;66.58;99240.63;1583241;91;21656;-69
2021/03/29 02:08:18;;;;;;;8.85;3.75;;;;;;;0.74;66.57;99228.14;1583355;91;21380;-70
2021/03/29 02:10:48;;;;;;;3.15;2.05;;;;;;;0.74;66.88;99242.67;1584685;90;21663;-70
2021/03/29 02:13:20;;;;;;;7.17;3.27;;;;;;;0.69;66.52;99245.81;1583234;91;21638;-70
2021/03/29 02:15:53;;;;;;;3.08;2.47;;;;;;;0.64;65.87;99244.69;1583258;90;21616;-70
2021/03/29 02:18:25;;;;;;;2.80;1.75;;;;;;;0.60;65.90;99246.11;1583330;91;21691;-70
2021/03/29 02:20:59;;;;;;;5.72;2.35;;;;;;;0.55;66.53;99240.30;1583269;91;21180;-65
2021/03/29 02:23:30;;;;;;;2.62;1.70;;;;;;;0.47;65.75;99237.55;1583722;91;21623;-65
2021/03/29 02:26:02;;;;;;;2.35;2.00;;;;;;;0.48;67.94;99242.23;1583347;91;21337;-65
2021/03/29 02:28:31;;;;;;;3.22;2.72;;;;;;;0.46;67.42;99243.58;1583493;90;21365;-65
2021/03/29 02:31:00;;;;;;;2.40;1.82;;;;;;;0.44;67.05;99240.22;1583350;91;21904;-70
2021/03/29 02:33:31;;;;;;;2.83;1.85;;;;;;;0.41;68.64;99246.71;1583514;91;21203;-70
2021/03/29 02:35:59;;;;;;;2.70;1.10;;;;;;;0.40;69.50;99248.86;1583294;90;21706;-70
2021/03/29 02:38:30;;;;;;;3.55;1.57;;;;;;;0.41;68.08;99251.81;1583384;89;21362;-70
2021/03/29 02:41:00;;;;;;;3.05;2.15;;;;;;;0.39;68.56;99254.84;1564726;91;21234;-70
2021/03/29 02:43:30;;;;;;;2.92;1.47;;;;;;;0.39;68.37;99252.73;1583423;91;21417;-69
2021/03/29 02:46:24;;;;;;;2.65;2.00;;;;;;;0.36;68.50;99251.55;1583267;91;21180;-69
2021/03/29 02:48:52;;;;;;;2.00;1.50;;;;;;;0.36;68.50;99251.55;1593046;89;21215;-69
2021/03/29 02:51:22;;;;;;;2.35;1.62;;;;;;;0.29;69.00;99248.37;1601840;88;21296;-70
2021/03/29 02:53:54;;;;;;;2.58;2.37;;;;;;;0.27;69.55;99246.28;1606455;88;21650;-69
2021/03/29 02:56:47;;;;;;;3.15;2.08;;;;;;;0.27;69.55;99246.28;1623655;84;21229;-69
2021/03/29 02:59:21;;;;;;;4.95;2.25;;;;;;;0.24;68.72;99249.38;1649548;86;21193;-70
2021/03/29 03:01:51;;;;;;;3.75;2.40;;;;;;;0.12;68.77;99241.66;1649592;86;21594;-70
2021/03/29 03:04:20;;;;;;;4.58;2.33;;;;;;;0.12;68.77;99241.66;1693152;84;21653;-70
2021/03/29 03:06:50;;;;;;;3.20;2.27;;;;;;;0.14;68.62;99247.56;1693019;84;21177;-70
2021/03/29 03:09:18;;;;;;;4.30;2.77;;;;;;;0.04;68.10;99238.50;1693007;84;21221;-70
2021/03/29 03:11:47;;;;;;;3.92;3.35;;;;;;;0.09;68.59;99253.69;1693122;84;21303;-70
2021/03/29 03:14:17;;;;;;;3.08;2.87;;;;;;;0.05;68.56;99254.22;1692950;84;21236;-70
2021/03/29 03:16:46;;;;;;;3.17;2.45;;;;;;;-0.01;68.42;99247.60;1693137;84;21574;-70
2021/03/29 03:19:14;;;;;;;5.22;2.87;;;;;;;-0.04;68.20;99251.50;1692939;84;21197;-70
2021/03/29 03:21:42;;;;;;;4.00;2.37;;;;;;;-0.07;68.60;99249.05;1688417;84;21595;-71
2021/03/29 03:24:12;;;;;;;5.00;2.75;;;;;;;-0.11;68.60;99251.29;1682519;84;21241;-67
2021/03/29 03:26:40;;;;;;;5.42;2.98;;;;;;;-0.15;68.98;99243.33;1678739;84;21178;-69
2021/03/29 03:29:08;;;;;;;5.03;2.17;;;;;;;-0.22;68.77;99241.84;1678684;84;21226;-65
2021/03/29 03:31:36;;;;;;;7.53;3.33;;;;;;;-0.24;68.93;99250.44;1678709;84;21135;-64
2021/03/29 03:34:04;;;;;;;4.33;2.22;;;;;;;-0.24;68.93;99250.44;1678700;84;21155;-65
2021/03/29 03:36:34;;;;;;;3.83;3.22;;;;;;;-0.27;68.69;99256.91;1678772;84;21736;-65
2021/03/29 03:39:04;;;;;;;3.25;2.15;;;;;;;-0.31;68.93;99251.03;1652082;84;21194;-64
2021/03/29 03:41:34;;;;;;;3.37;1.82;;;;;;;-0.35;68.97;99260.13;1678572;84;21174;-67
2021/03/29 03:44:04;;;;;;;6.83;5.33;;;;;;;-0.40;70.47;99256.42;1678725;84;21722;-67
2021/03/29 03:46:58;;;;;;;8.80;4.33;;;;;;;-0.47;70.72;99267.22;1678685;84;21143;-68
2021/03/29 03:49:48;;;;;;;21.35;13.72;;;;;;;-0.52;70.62;99265.69;1642693;87;21326;-69
2021/03/29 03:52:18;;;;;;;22.90;11.80;;;;;;;-0.53;70.49;99263.58;1672037;85;21177;-67
2021/03/29 03:54:47;;;;;;;30.15;19.55;;;;;;;-0.52;71.02;99266.53;1648898;86;21185;-69
2021/03/29 03:57:16;;;;;;;13.05;5.37;;;;;;;-0.54;70.74;99268.27;1672020;85;21338;-69
2021/03/29 03:59:53;;;;;;;3.98;2.27;;;;;;;-0.57;70.56;99270.91;1671489;85;21171;-65
2021/03/29 04:02:25;;;;;;;4.15;2.70;;;;;;;-0.57;70.41;99269.64;1671481;84;21287;-65
2021/03/29 04:04:54;;;;;;;4.40;2.87;;;;;;;-0.57;70.02;99268.80;1671549;85;21330;-65
2021/03/29 04:07:23;;;;;;;4.90;2.37;;;;;;;-0.63;69.73;99261.33;1671667;85;21318;-65
2021/03/29 04:09:58;;;;;;;4.40;2.20;;;;;;;-0.63;69.73;99261.33;1671585;85;21603;-65
2021/03/29 04:12:24;;;;;;;3.30;1.90;;;;;;;-0.59;69.85;99271.84;1671614;85;21778;-65
2021/03/29 04:14:53;;;;;;;3.85;2.05;;;;;;;-0.60;70.54;99269.73;1671695;85;21317;-66
2021/03/29 04:17:21;;;;;;;8.03;1.95;;;;;;;-0.63;71.42;99268.98;1666620;84;21219;-66
2021/03/29 04:19:49;;;;;;;3.58;2.00;;;;;;;-0.64;70.98;99273.67;1669428;86;21216;-66
2021/03/29 04:24:58;;;;;;;4.22;2.33;;;;;;;-0.64;70.38;99263.04;1698054;84;21626;-67
2021/03/29 04:27:26;;;;;;;3.70;2.83;;;;;;;-0.62;70.21;99266.80;1698418;84;21215;-66
2021/03/29 04:29:54;;;;;;;2.90;1.85;;;;;;;-0.62;71.88;99272.75;1698720;84;21178;-66
2021/03/29 04:32:22;;;;;;;2.98;2.17;;;;;;;-0.60;70.52;99268.45;1698341;84;21223;-66
2021/03/29 04:34:51;;;;;;;3.25;1.52;;;;;;;-0.61;72.25;99265.50;1698375;84;21171;-68
2021/03/29 04:37:19;;;;;;;1.55;1.15;;;;;;;-0.63;71.91;99270.26;1698667;84;21242;-69
2021/03/29 04:39:47;;;;;;;1.75;1.52;;;;;;;-0.60;73.97;99274.00;1698207;84;21150;-72
2021/03/29 04:42:15;;;;;;;1.98;1.22;;;;;;;-0.47;76.67;99271.52;1698397;84;21194;-69
2021/03/29 04:44:44;;;;;;;2.95;1.85;;;;;;;-0.39;75.89;99269.59;1698121;84;21175;-63
2021/03/29 04:47:13;;;;;;;8.43;1.80;;;;;;;-0.19;75.65;99266.00;1698250;84;21167;-65
2021/03/29 04:49:41;;;;;;;1.37;1.05;;;;;;;-0.04;74.31;99264.27;1698086;84;21681;-67
2021/03/29 04:55:10;;;;;;;2.80;1.52;;;;;;;0.11;72.16;99268.54;1736767;82;21182;-66
2021/03/29 04:57:38;;;;;;;1.62;1.52;;;;;;;0.23;71.65;99272.84;1707407;84;21569;-66
2021/03/29 05:00:09;;;;;;;3.72;1.95;;;;;;;0.23;71.65;99272.84;1707722;83;21173;-66
2021/03/29 05:02:38;;;;;;;7.20;2.00;;;;;;;0.26;71.96;99269.34;1707400;84;21185;-67
2021/03/29 05:05:09;;;;;;;3.65;2.40;;;;;;;0.30;71.49;99274.76;1707426;84;21585;-66
2021/03/29 05:07:37;;;;;;;3.77;2.15;;;;;;;0.32;71.82;99272.54;1707358;84;21596;-66
2021/03/29 05:10:11;;;;;;;2.10;1.52;;;;;;;0.32;71.82;99276.37;1707271;84;21185;-67
2021/03/29 05:12:39;;;;;;;6.25;1.90;;;;;;;0.29;71.67;99270.52;1707327;84;21196;-66
2021/03/29 05:15:09;;;;;;;3.50;2.05;;;;;;;0.37;71.23;99277.08;1707383;83;21586;-65
2021/03/29 05:17:37;;;;;;;2.85;2.12;;;;;;;0.41;71.20;99271.42;1707541;83;21160;-65
2021/03/29 05:20:09;;;;;;;3.92;2.42;;;;;;;0.43;71.50;99272.20;1707515;84;21158;-65
2021/03/29 05:22:37;;;;;;;4.08;2.20;;;;;;;0.51;71.05;99275.81;1707378;84;21579;-65
2021/03/29 05:25:31;;;;;;;4.17;2.90;;;;;;;0.55;70.90;99273.53;1707534;84;21152;-66
2021/03/29 05:27:59;;;;;;;8.63;4.87;;;;;;;0.61;70.80;99266.96;1679215;85;21234;-66
2021/03/29 05:30:27;;;;;;;6.35;4.28;;;;;;;0.61;70.80;99266.96;1718842;83;21148;-66
2021/03/29 05:32:55;;;;;;;10.65;7.20;;;;;;;0.84;69.76;99266.61;1707832;83;21198;-65
2021/03/29 05:35:23;;;;;;;8.90;4.58;;;;;;;0.84;69.76;99266.61;1694968;85;21182;-66
2021/03/29 05:37:51;;;;;;;4.65;2.83;;;;;;;0.94;69.17;99265.84;1707862;83;21788;-66
2021/03/29 05:40:19;;;;;;;8.08;3.22;;;;;;;1.06;68.92;99265.42;1694993;85;21167;-67
2021/03/29 05:42:50;;;;;;;6.42;3.33;;;;;;;1.24;68.79;99261.42;1703057;84;21607;-67
2021/03/29 05:45:20;;;;;;;7.75;3.95;;;;;;;1.24;68.79;99261.42;1669587;84;21228;-66
2021/03/29 05:47:49;;;;;;;13.03;4.62;;;;;;;1.36;68.27;99272.03;1670612;84;21628;-65
2021/03/29 05:50:18;;;;;;;24.23;9.03;;;;;;;1.46;67.80;99272.56;1670788;84;21165;-66
2021/03/29 05:52:46;;;;;;;8.18;4.08;;;;;;;1.56;67.32;99266.65;1670798;84;21188;-66
2021/03/29 05:55:39;;;;;;;8.15;3.25;;;;;;;1.66;67.41;99269.29;1670904;84;21187;-67
2021/03/29 05:58:29;;;;;;;7.40;2.47;;;;;;;1.77;66.57;99271.84;1667411;86;21176;-66
2021/03/29 06:00:43;;;;;;;3.50;2.27;;;;;;;1.84;66.76;99269.44;1706177;84;21316;-66
2021/03/29 06:03:53;;;;;;;3.83;3.02;;;;;;;1.96;66.42;99274.55;1704968;84;21797;-65
2021/03/29 06:06:21;;;;;;;8.20;2.33;;;;;;;2.08;66.83;99274.09;1711110;84;21175;-66
2021/03/29 06:08:52;;;;;;;11.68;2.27;;;;;;;2.23;65.30;99268.38;1734269;83;21174;-65
2021/03/29 06:11:29;;;;;;;3.65;3.25;;;;;;;2.38;65.20;99269.06;1734055;83;21199;-66
2021/03/29 06:14:20;;;;;;;3.37;2.67;;;;;;;2.47;64.39;99264.02;1730471;83;21197;-65
2021/03/29 06:17:21;;;;;;;3.45;1.95;;;;;;;2.57;64.04;99259.38;1734179;83;21199;-66
2021/03/29 06:23:16;;;;;;;5.47;2.75;;;;;;;2.83;63.67;99263.00;1741426;82;21210;-68
2021/03/29 06:25:45;;;;;;;4.83;2.37;;;;;;;2.96;63.32;99261.57;1734915;83;21210;-69
2021/03/29 06:28:24;;;;;;;3.05;2.70;;;;;;;3.09;63.28;99264.02;1735072;83;21724;-68
2021/03/29 06:31:02;;;;;;;20.48;3.55;;;;;;;3.24;62.67;99259.96;1652432;82;21288;-67
2021/03/29 06:33:31;;;;;;;6.20;3.15;;;;;;;3.34;62.08;99262.09;1653851;86;21649;-65
2021/03/29 06:35:59;;;;;;;4.75;2.80;;;;;;;3.49;61.93;99262.31;1655391;86;21573;-66
2021/03/29 06:38:33;;;;;;;5.78;2.75;;;;;;;3.67;61.80;99263.61;1655289;86;21205;-65
2021/03/29 06:41:04;;;;;;;4.35;2.37;;;;;;;3.87;60.89;99264.45;1655358;86;21130;-65
2021/03/29 06:43:57;;;;;;;8.73;2.80;;;;;;;4.05;60.21;99266.17;1655543;86;21194;-65
2021/03/29 06:46:29;;;;;;;3.95;2.27;;;;;;;4.22;60.11;99267.53;1731883;83;21144;-65
2021/03/29 06:49:00;;;;;;;8.35;3.20;;;;;;;4.46;60.24;99262.52;1731536;83;21668;-66
2021/03/29 06:51:34;;;;;;;7.03;2.22;;;;;;;4.65;59.94;99262.47;1731755;83;21596;-65
2021/03/29 06:54:08;;;;;;;7.30;2.33;;;;;;;4.82;59.11;99266.36;1731760;83;21144;-68
2021/03/29 06:56:41;;;;;;;6.05;3.00;;;;;;;4.99;58.22;99261.19;1731642;83;21191;-68
2021/03/29 06:59:18;;;;;;;4.53;2.33;;;;;;;5.15;57.78;99258.68;1731898;83;21195;-68
2021/03/29 07:01:51;;;;;;;4.40;2.12;;;;;;;5.33;57.51;99259.02;1731849;83;21175;-68
2021/03/29 07:04:25;;;;;;;6.37;2.58;;;;;;;5.56;56.97;99265.59;1732020;83;21187;-69
2021/03/29 07:06:58;;;;;;;5.12;2.72;;;;;;;5.77;56.13;99262.33;1731822;83;21228;-69
2021/03/29 07:09:49;;;;;;;3.70;2.62;;;;;;;5.96;55.11;99262.59;1731593;83;21231;-69
2021/03/29 07:12:18;;;;;;;3.95;1.92;;;;;;;6.08;54.35;99254.19;1696802;84;21183;-68
2021/03/29 07:14:46;;;;;;;4.97;2.15;;;;;;;6.25;53.58;99261.47;1701068;83;21231;-68
2021/03/29 07:17:16;;;;;;;7.75;2.72;;;;;;;6.37;52.96;99258.22;1701365;84;21175;-68
2021/03/29 07:19:47;;;;;;;3.10;1.80;;;;;;;6.54;52.39;99256.34;1701265;84;21246;-65
2021/03/29 07:22:18;;;;;;;4.03;1.57;;;;;;;6.65;51.98;99255.77;1701183;84;21184;-65
2021/03/29 07:25:13;;;;;;;6.28;2.10;;;;;;;6.80;51.67;99248.44;1645585;86;21650;-65
2021/03/29 07:27:46;;;;;;;4.37;2.50;;;;;;;7.01;51.82;99249.77;1644877;86;21247;-65
2021/03/29 07:30:18;;;;;;;4.90;2.33;;;;;;;7.24;51.25;99244.53;1645397;86;21191;-65
2021/03/29 07:32:55;;;;;;;3.52;2.27;;;;;;;7.48;50.50;99246.96;1645588;86;21216;-65
2021/03/29 07:35:28;;;;;;;3.58;2.42;;;;;;;7.66;50.37;99246.33;1645337;86;21190;-65
2021/03/29 07:37:57;;;;;;;2.62;1.80;;;;;;;7.82;48.60;99240.56;1639613;86;21214;-65
2021/03/29 07:40:39;;;;;;;3.15;1.42;;;;;;;7.94;47.43;99246.27;1645506;86;21206;-68
2021/03/29 07:43:15;;;;;;;4.03;2.00;;;;;;;8.22;49.32;99245.38;1678099;83;21228;-68
2021/03/29 07:45:54;;;;;;;4.28;1.27;;;;;;;8.38;45.86;99242.69;1701534;83;21239;-68
2021/03/29 07:48:35;;;;;;;4.20;2.08;;;;;;;8.53;46.38;99239.95;1667547;85;21596;-68
2021/03/29 07:51:30;;;;;;;3.52;1.40;;;;;;;8.59;44.64;99241.33;1667529;86;21211;-68
2021/03/29 07:54:02;;;;;;;1.67;1.12;;;;;;;8.64;43.87;99234.06;1654129;87;21221;-65
2021/03/29 07:56:39;;;;;;;2.58;1.47;;;;;;;8.79;42.87;99230.97;1665677;86;21152;-68
2021/03/29 07:59:07;;;;;;;5.12;1.30;;;;;;;8.86;42.74;99233.05;1665761;86;21328;-68
2021/03/29 08:02:01;;;;;;;4.03;1.57;;;;;;;8.93;42.84;99231.70;1683016;85;21195;-68
2021/03/29 08:05:08;;;;;;;2.15;1.45;;;;;;;9.11;42.17;99231.40;1683128;85;21197;-68
2021/03/29 08:07:47;;;;;;;4.12;1.30;;;;;;;9.40;42.06;99240.65;1665687;86;21163;-65
2021/03/29 08:10:17;;;;;;;2.05;1.15;;;;;;;9.67;40.58;99237.46;1683040;84;21630;-65
2021/03/29 08:19:12;;;;;;;1.85;1.55;;;;;;;10.11;38.14;99233.06;1652054;87;21193;-65
2021/03/29 08:22:09;;;;;;;2.10;1.10;;;;;;;10.34;39.68;99235.34;1624504;87;21659;-69
2021/03/29 08:24:50;;;;;;;2.00;1.20;;;;;;;10.64;39.97;99237.01;1652747;87;21183;-69
2021/03/29 08:27:28;;;;;;;0.65;0.53;;;;;;;10.82;37.44;99240.02;1659763;86;21195;-69
2021/03/29 08:30:31;;;;;;;1.72;0.85;;;;;;;11.00;37.91;99236.54;1652687;87;21376;-69
2021/03/29 08:33:12;;;;;;;1.07;0.90;;;;;;;11.15;37.38;99235.39;1695789;84;21617;-68
2021/03/29 08:35:40;;;;;;;1.67;0.82;;;;;;;11.27;37.17;99238.37;1695886;84;21164;-71
2021/03/29 08:38:10;;;;;;;2.45;0.90;;;;;;;11.45;38.51;99234.36;1695855;84;21181;-68
2021/03/29 08:40:39;;;;;;;4.30;1.07;;;;;;;11.63;38.21;99234.73;1695995;84;21216;-69
2021/03/29 08:43:09;;;;;;;2.10;1.15;;;;;;;11.46;33.73;99243.83;1695744;84;21185;-68
2021/03/29 08:45:38;;;;;;;2.42;0.98;;;;;;;11.60;35.58;99239.69;1695894;84;21666;-69
2021/03/29 08:48:09;;;;;;;1.90;0.85;;;;;;;11.92;36.07;99237.22;1696105;84;21185;-66
2021/03/29 08:50:40;;;;;;;1.62;1.30;;;;;;;12.18;36.81;99246.41;1695945;84;21608;-65
2021/03/29 08:53:11;;;;;;;2.45;1.10;;;;;;;12.14;31.76;99237.18;1652626;87;21191;-65
2021/03/29 08:55:43;;;;;;;1.20;0.80;;;;;;;11.96;32.62;99241.24;1681457;85;21183;-65
2021/03/29 08:58:12;;;;;;;1.80;0.88;;;;;;;12.26;32.22;99234.08;1695980;84;21231;-65
2021/03/29 09:00:43;;;;;;;2.12;1.10;;;;;;;12.61;35.61;99237.28;1652540;87;21627;-65
2021/03/29 09:03:21;;;;;;;2.50;1.47;;;;;;;12.87;33.13;99246.06;1681500;84;21635;-65
2021/03/29 09:05:49;;;;;;;2.37;1.30;;;;;;;12.33;30.95;99239.97;1681707;85;21352;-67
2021/03/29 09:08:18;;;;;;;1.10;0.72;;;;;;;12.85;31.01;99239.20;1681554;85;21218;-67
2021/03/29 09:10:49;;;;;;;1.35;0.98;;;;;;;13.17;32.50;99250.08;1695837;84;21597;-66
2021/03/29 09:13:21;;;;;;;2.05;1.20;;;;;;;13.45;32.77;99250.73;1652681;87;21274;-69
2021/03/29 09:15:51;;;;;;;1.67;1.17;;;;;;;13.70;30.15;99254.20;1681670;85;21281;-66
2021/03/29 09:18:26;;;;;;;1.35;0.98;;;;;;;13.97;31.84;99243.17;1681437;85;21159;-66
2021/03/29 09:20:55;;;;;;;2.77;1.10;;;;;;;14.37;31.15;99245.77;1681951;85;21186;-66
2021/03/29 09:23:32;;;;;;;4.80;1.50;;;;;;;14.79;34.79;99248.13;1696125;84;21322;-66
2021/03/29 09:26:02;;;;;;;1.95;1.30;;;;;;;14.86;28.30;99244.02;1648589;87;21164;-66
2021/03/29 09:28:36;;;;;;;3.20;1.30;;;;;;;15.12;28.90;99238.07;1695967;84;21175;-66
2021/03/29 09:31:12;;;;;;;2.10;1.35;;;;;;;15.28;27.20;99239.27;1692177;84;21646;-66
2021/03/29 09:33:44;;;;;;;1.75;1.02;;;;;;;14.77;29.01;99242.23;1688405;85;21161;-67
2021/03/29 09:36:18;;;;;;;3.02;1.25;;;;;;;15.13;29.50;99242.34;1688045;85;21603;-66
2021/03/29 09:38:53;;;;;;;5.78;2.35;;;;;;;14.16;27.90;99247.64;1688246;85;21570;-66
2021/03/29 09:41:29;;;;;;;3.22;1.70;;;;;;;14.67;28.57;99245.66;1688136;85;21579;-66
2021/03/29 09:43:59;;;;;;;3.10;1.35;;;;;;;15.04;26.68;99236.63;1688128;85;21182;-68
2021/03/29 09:46:30;;;;;;;2.90;1.40;;;;;;;15.55;26.58;99231.52;1688238;84;21209;-67
2021/03/29 09:49:14;;;;;;;1.20;1.10;;;;;;;15.49;27.18;99236.83;1688171;84;21617;-66
2021/03/29 09:51:46;;;;;;;2.05;1.60;;;;;;;16.17;27.44;99228.66;1688282;85;21190;-66
2021/03/29 09:54:32;;;;;;;1.82;1.10;;;;;;;15.99;24.96;99229.95;1688313;84;21222;-66
2021/03/29 09:57:21;;;;;;;1.10;1.00;;;;;;;16.69;27.77;99228.41;1686288;85;21375;-66
2021/03/29 09:59:51;;;;;;;1.65;1.02;;;;;;;17.16;27.85;99223.18;1645193;86;21194;-66
2021/03/29 10:02:28;;;;;;;2.58;1.20;;;;;;;17.00;23.76;99220.47;1674009;86;21219;-67
2021/03/29 10:05:04;;;;;;;1.77;1.00;;;;;;;17.02;26.56;99220.64;1686234;85;21603;-66
2021/03/29 10:07:33;;;;;;;3.70;1.57;;;;;;;17.10;27.02;99225.13;1645166;87;21176;-66
2021/03/29 10:10:07;;;;;;;3.42;1.67;;;;;;;16.28;24.87;99220.11;1673941;86;21191;-66
2021/03/29 10:12:37;;;;;;;3.35;0.93;;;;;;;15.98;24.60;99225.19;1670567;85;21563;-66
2021/03/29 10:15:13;;;;;;;2.25;1.30;;;;;;;16.27;25.29;99223.69;1641158;87;21763;-66
2021/03/29 10:17:41;;;;;;;1.95;1.10;;;;;;;15.62;24.81;99221.63;1688153;85;21601;-66
2021/03/29 10:20:16;;;;;;;2.00;1.27;;;;;;;15.80;25.71;99219.06;1688116;84;21198;-66
2021/03/29 10:22:44;;;;;;;3.45;0.93;;;;;;;15.62;25.41;99221.63;1688169;84;21567;-68
2021/03/29 10:25:19;;;;;;;3.25;1.62;;;;;;;15.68;25.25;99214.18;1686109;85;21233;-68
2021/03/29 10:27:53;;;;;;;2.42;1.47;;;;;;;15.63;24.91;99216.74;1645064;86;21278;-68
2021/03/29 10:30:33;;;;;;;3.25;1.25;;;;;;;15.80;26.51;99219.54;1674001;85;21199;-68
2021/03/29 10:33:05;;;;;;;3.37;2.40;;;;;;;15.61;24.92;99212.12;1686166;84;21185;-70
2021/03/29 10:35:33;;;;;;;2.35;1.15;;;;;;;15.52;25.37;99210.86;1686159;84;21261;-68
2021/03/29 10:38:03;;;;;;;1.30;0.93;;;;;;;15.94;27.26;99214.67;1641117;87;21191;-67
2021/03/29 10:40:31;;;;;;;2.00;1.12;;;;;;;15.96;24.88;99210.09;1641199;87;21207;-67
2021/03/29 10:42:59;;;;;;;1.50;1.10;;;;;;;16.37;26.63;99207.91;1640994;87;21612;-68
2021/03/29 10:45:27;;;;;;;2.20;0.93;;;;;;;16.71;24.63;99209.39;1640905;87;21171;-71
2021/03/29 10:47:55;;;;;;;2.35;1.30;;;;;;;17.19;25.46;99207.63;1687845;84;21221;-68
2021/03/29 10:50:24;;;;;;;1.20;0.95;;;;;;;17.25;23.22;99207.00;1688071;85;21186;-68
2021/03/29 10:52:52;;;;;;;3.58;1.20;;;;;;;17.53;22.99;99205.86;1688105;85;21662;-68
2021/03/29 10:55:21;;;;;;;1.32;1.20;;;;;;;17.37;24.42;99200.52;1688231;85;21210;-68
2021/03/29 10:57:51;;;;;;;1.55;1.15;;;;;;;17.78;22.80;99190.55;1688214;85;21182;-69
2021/03/29 11:00:21;;;;;;;1.47;0.93;;;;;;;18.30;25.34;99189.06;1688165;85;21208;-72
2021/03/29 11:02:52;;;;;;;5.25;1.77;;;;;;;18.27;22.09;99183.65;1687798;84;21188;-68
2021/03/29 11:05:20;;;;;;;2.30;1.25;;;;;;;18.19;22.30;99186.75;1687968;84;21174;-69
2021/03/29 11:07:49;;;;;;;2.70;0.90;;;;;;;18.66;23.11;99184.37;1687999;85;21217;-68
2021/03/29 11:10:17;;;;;;;2.27;1.30;;;;;;;19.07;23.61;99181.20;1688062;85;21748;-69
2021/03/29 11:12:45;;;;;;;1.45;1.10;;;;;;;19.21;23.54;99178.73;1688076;85;21149;-68
2021/03/29 11:15:15;;;;;;;1.87;0.82;;;;;;;18.20;21.91;99181.83;1687945;84;21141;-68
2021/03/29 11:17:42;;;;;;;5.17;1.17;;;;;;;18.72;24.08;99187.65;1688008;84;21621;-69
2021/03/29 11:20:32;;;;;;;2.08;1.65;;;;;;;18.82;22.39;99176.48;1688220;84;21145;-68
2021/03/29 11:23:00;;;;;;;2.47;1.47;;;;;;;18.70;22.19;99179.94;1688094;84;21220;-68
2021/03/29 11:25:29;;;;;;;1.67;0.80;;;;;;;18.86;23.54;99167.27;1688789;85;21142;-69
2021/03/29 11:27:58;;;;;;;1.00;0.70;;;;;;;18.65;21.80;99180.09;1687959;84;21213;-68
2021/03/29 11:30:26;;;;;;;5.58;1.20;;;;;;;18.78;23.11;99177.80;1687894;85;21169;-66
2021/03/29 11:32:54;;;;;;;1.37;1.05;;;;;;;18.60;21.68;99175.31;1687918;84;21168;-66
2021/03/29 11:35:22;;;;;;;1.20;0.82;;;;;;;18.76;24.19;99174.00;1688049;84;21248;-65
2021/03/29 11:37:51;;;;;;;1.47;0.85;;;;;;;18.93;22.59;99174.33;1688272;84;21150;-66
2021/03/29 11:40:19;;;;;;;1.47;0.80;;;;;;;18.96;23.44;99174.48;1688195;84;21209;-66
2021/03/29 11:42:47;;;;;;;1.35;0.78;;;;;;;18.91;22.36;99164.94;1688044;85;21635;-66
2021/03/29 11:45:36;;;;;;;1.22;1.10;;;;;;;18.74;22.37;99178.63;1687965;84;21201;-66
2021/03/29 11:50:47;;;;;;;2.05;1.20;;;;;;;18.22;23.48;99171.47;1688656;84;21181;-67
2021/03/29 11:53:18;;;;;;;2.00;1.00;;;;;;;18.12;23.08;99169.48;1688881;84;21208;-67
2021/03/29 11:55:47;;;;;;;2.05;0.90;;;;;;;18.01;24.01;99168.48;1678194;84;21237;-66
2021/03/29 11:58:15;;;;;;;1.87;0.70;;;;;;;17.78;24.01;99167.42;1726468;83;21352;-68
2021/03/29 12:06:02;;;;;;;1.35;0.80;;;;;;;17.81;24.34;99171.05;1726352;83;21154;-67
2021/03/29 12:08:33;;;;;;;0.93;0.72;;;;;;;17.86;23.66;99172.20;1726202;83;21221;-66
2021/03/29 12:13:44;;;;;;;3.42;1.07;;;;;;;17.54;23.10;99176.00;1724711;83;21622;-69
2021/03/29 12:16:14;;;;;;;3.12;0.62;;;;;;;17.33;23.41;99175.06;1726254;82;21579;-67
2021/03/29 12:18:51;;;;;;;0.85;0.55;;;;;;;17.15;23.82;99173.00;1726281;83;21234;-67
2021/03/29 12:21:31;;;;;;;3.80;1.10;;;;;;;17.01;24.40;99169.13;1726267;83;21644;-71
2021/03/29 12:24:03;;;;;;;1.77;0.85;;;;;;;16.81;23.72;99168.97;1726465;83;21289;-67
2021/03/29 12:26:32;;;;;;;1.82;1.00;;;;;;;16.71;24.08;99163.48;1726333;83;21159;-67
2021/03/29 12:29:02;;;;;;;2.22;1.12;;;;;;;16.85;24.53;99153.75;1726294;83;21158;-67
2021/03/29 12:31:30;;;;;;;1.02;0.80;;;;;;;17.00;25.01;99151.72;1702065;83;21181;-66